Time;durP1;ratioP1;P1;durP2;ratioP2;P2;SDS_P1;SDS_P2;PMS_P1;PMS_P2;Temp;Humidity;BMP_temperature;BMP_pressure;BME280_temperature;BME280_humidity;BME280_pressure;Samples;Min_cycle;Max_cycle;Signal;HPM_P1;HPM_P2
2023/04/11 00:01:18;;;;;;;54.67;37.33;;;;;;;;;;4935651;29;20077;-81
2023/04/11 00:03:43;;;;;;;53.30;37.10;;;;;;;;;;4936245;29;20020;-82
2023/04/11 00:06:09;;;;;;;59.17;39.78;;;;;;;;;;4936139;29;20256;-83
2023/04/11 00:08:34;;;;;;;56.97;39.78;;;;;;;;;;4920638;29;20027;-83
2023/04/11 00:10:59;;;;;;;58.83;39.20;;;;;;;;;;4920821;29;20048;-83
2023/04/11 00:13:25;;;;;;;53.10;36.67;;;;;;;;;;4937085;29;20024;-83
2023/04/11 00:15:54;;;;;;;84.80;46.47;;;;;;;;;;4936371;29;20056;-85
2023/04/11 00:18:19;;;;;;;77.32;44.90;;;;;;;;;;4919576;29;20020;-84
2023/04/11 00:20:44;;;;;;;71.05;40.60;;;;;;;;;;4929492;29;20060;-80
2023/04/11 00:23:10;;;;;;;62.92;37.92;;;;;;;;;;4896216;29;20039;-78
2023/04/11 00:25:36;;;;;;;58.25;35.55;;;;;;;;;;4909004;29;20121;-78
2023/04/11 00:28:01;;;;;;;75.78;42.25;;;;;;;;;;4910895;29;20637;-79
2023/04/11 00:30:26;;;;;;;64.28;39.28;;;;;;;;;;4908317;29;20129;-79
2023/04/11 00:32:52;;;;;;;63.15;37.63;;;;;;;;;;4911012;29;20028;-81
2023/04/11 00:35:17;;;;;;;49.10;33.10;;;;;;;;;;4917090;29;20032;-80
2023/04/11 00:37:43;;;;;;;46.38;28.63;;;;;;;;;;4916792;29;20278;-80
2023/04/11 00:40:11;;;;;;;45.20;31.42;;;;;;;;;;4900811;29;20035;-80
2023/04/11 00:42:36;;;;;;;49.40;32.67;;;;;;;;;;4919618;29;20016;-80
2023/04/11 00:45:01;;;;;;;43.65;29.38;;;;;;;;;;4911601;29;20091;-80
2023/04/11 00:47:27;;;;;;;65.15;38.83;;;;;;;;;;4929822;29;20020;-82
2023/04/11 00:49:52;;;;;;;45.45;28.90;;;;;;;;;;4931659;29;20032;-80
2023/04/11 00:52:18;;;;;;;42.20;28.38;;;;;;;;;;4916141;29;20085;-80
2023/04/11 00:54:43;;;;;;;49.08;31.35;;;;;;;;;;4896506;29;20136;-79
2023/04/11 00:57:08;;;;;;;43.55;30.92;;;;;;;;;;4912510;29;20069;-79
2023/04/11 00:59:34;;;;;;;49.13;31.52;;;;;;;;;;4912948;29;20475;-79
2023/04/11 01:02:00;;;;;;;48.78;32.03;;;;;;;;;;4912925;29;20035;-80
2023/04/11 01:04:26;;;;;;;48.55;31.90;;;;;;;;;;4915038;29;20497;-79
2023/04/11 01:06:55;;;;;;;57.22;37.25;;;;;;;;;;4894751;29;20028;-80
2023/04/11 01:09:20;;;;;;;;;;;;;;;;;;4896472;29;20052;-79
2023/04/11 01:11:47;;;;;;;53.50;33.25;;;;;;;;;;4914066;29;19923;-80
2023/04/11 01:14:12;;;;;;;45.30;30.60;;;;;;;;;;4897145;29;20040;-80
2023/04/11 01:16:38;;;;;;;37.92;27.15;;;;;;;;;;4914463;29;20402;-79
2023/04/11 01:19:03;;;;;;;41.70;27.77;;;;;;;;;;4915763;29;20118;-80
2023/04/11 01:21:30;;;;;;;49.53;28.75;;;;;;;;;;4894600;29;20020;-80
2023/04/11 01:23:57;;;;;;;43.20;29.45;;;;;;;;;;4895182;29;20024;-79
2023/04/11 01:26:22;;;;;;;56.53;32.85;;;;;;;;;;4912849;29;20494;-80
2023/04/11 01:28:47;;;;;;;54.55;31.23;;;;;;;;;;4917587;29;20028;-81
2023/04/11 01:31:13;;;;;;;43.20;30.33;;;;;;;;;;4915145;29;20031;-80
2023/04/11 01:33:38;;;;;;;45.40;30.95;;;;;;;;;;4924963;29;20008;-80
2023/04/11 01:36:04;;;;;;;45.08;28.88;;;;;;;;;;4926051;29;20092;-81
2023/04/11 01:38:29;;;;;;;35.05;24.30;;;;;;;;;;4898778;29;20036;-80
2023/04/11 01:40:56;;;;;;;36.20;24.85;;;;;;;;;;4892586;29;20028;-78
2023/04/11 01:43:21;;;;;;;29.48;23.15;;;;;;;;;;4910072;29;20031;-79
2023/04/11 01:45:46;;;;;;;27.73;21.35;;;;;;;;;;4909551;29;20482;-79
2023/04/11 01:48:13;;;;;;;37.63;25.35;;;;;;;;;;4909095;29;20032;-79
2023/04/11 01:50:38;;;;;;;31.98;23.92;;;;;;;;;;4908639;29;20039;-79
2023/04/11 01:53:04;;;;;;;28.90;21.95;;;;;;;;;;4911974;29;20024;-79
2023/04/11 01:55:29;;;;;;;22.25;18.30;;;;;;;;;;4899649;29;20036;-80
2023/04/11 01:57:55;;;;;;;24.33;18.77;;;;;;;;;;4908648;29;20024;-82
2023/04/11 02:00:20;;;;;;;28.58;21.98;;;;;;;;;;4935661;29;20042;-81
2023/04/11 02:02:45;;;;;;;28.65;21.88;;;;;;;;;;4934460;29;20040;-82
2023/04/11 02:05:11;;;;;;;26.90;21.60;;;;;;;;;;4934984;29;20032;-82
2023/04/11 02:07:36;;;;;;;28.48;21.90;;;;;;;;;;4918285;29;20044;-82
2023/04/11 02:10:01;;;;;;;31.80;23.00;;;;;;;;;;4918958;29;20028;-82
2023/04/11 02:12:27;;;;;;;31.20;23.65;;;;;;;;;;4933894;29;20060;-81
2023/04/11 02:14:52;;;;;;;45.60;32.30;;;;;;;;;;4934783;29;20032;-83
2023/04/11 02:17:17;;;;;;;42.95;31.65;;;;;;;;;;4918320;29;20016;-82
2023/04/11 02:19:44;;;;;;;58.22;39.90;;;;;;;;;;4926141;29;20029;-83
2023/04/11 02:22:10;;;;;;;56.22;40.97;;;;;;;;;;4923331;29;20024;-83
2023/04/11 02:24:35;;;;;;;54.45;38.95;;;;;;;;;;4939484;29;20108;-82
2023/04/11 02:27:01;;;;;;;54.28;42.65;;;;;;;;;;4938658;29;20016;-83
2023/04/11 02:29:27;;;;;;;51.45;38.70;;;;;;;;;;4939038;29;21111;-82
2023/04/11 02:31:52;;;;;;;50.28;37.67;;;;;;;;;;4938310;29;20075;-83
2023/04/11 02:34:17;;;;;;;51.97;36.95;;;;;;;;;;4938885;29;20068;-83
2023/04/11 02:36:44;;;;;;;55.70;38.72;;;;;;;;;;4938881;29;20040;-84
2023/04/11 02:39:10;;;;;;;47.22;34.63;;;;;;;;;;4920438;29;20031;-82
2023/04/11 02:41:37;;;;;;;48.88;34.55;;;;;;;;;;4938512;29;20008;-82
2023/04/11 02:44:03;;;;;;;51.92;36.60;;;;;;;;;;4938047;29;20031;-82
2023/04/11 02:46:28;;;;;;;53.53;35.55;;;;;;;;;;4936979;29;20030;-83
2023/04/11 02:48:53;;;;;;;48.60;35.63;;;;;;;;;;4921981;29;20008;-82
2023/04/11 02:51:19;;;;;;;46.45;33.65;;;;;;;;;;4938260;29;20081;-82
2023/04/11 02:53:44;;;;;;;48.85;34.30;;;;;;;;;;4938111;29;20032;-82
2023/04/11 02:56:10;;;;;;;48.63;34.95;;;;;;;;;;4921327;29;20020;-82
2023/04/11 02:58:37;;;;;;;51.22;37.72;;;;;;;;;;4939369;29;20024;-83
2023/04/11 03:01:04;;;;;;;48.53;36.30;;;;;;;;;;4938037;29;20052;-83
2023/04/11 03:03:30;;;;;;;53.05;38.83;;;;;;;;;;4920693;29;20024;-82
2023/04/11 03:05:55;;;;;;;53.47;38.58;;;;;;;;;;4937434;29;20032;-82
2023/04/11 03:08:21;;;;;;;51.17;36.15;;;;;;;;;;4937579;29;20022;-82
2023/04/11 03:10:46;;;;;;;75.82;49.65;;;;;;;;;;4937681;29;20028;-83
2023/04/11 03:13:11;;;;;;;61.10;41.33;;;;;;;;;;4920046;29;20039;-83
2023/04/11 03:15:36;;;;;;;64.95;42.67;;;;;;;;;;4918076;29;20028;-81
2023/04/11 03:18:02;;;;;;;58.25;40.15;;;;;;;;;;4931664;29;20039;-81
2023/04/11 03:20:27;;;;;;;65.85;43.60;;;;;;;;;;4917737;29;20092;-81
2023/04/11 03:22:53;;;;;;;67.88;43.15;;;;;;;;;;4936725;29;20017;-82
2023/04/11 03:25:18;;;;;;;63.63;43.35;;;;;;;;;;4936599;29;20028;-83
2023/04/11 03:27:43;;;;;;;67.22;43.38;;;;;;;;;;4936527;29;20020;-83
2023/04/11 03:30:09;;;;;;;75.18;45.85;;;;;;;;;;4919067;29;20092;-83
2023/04/11 03:32:34;;;;;;;76.30;47.58;;;;;;;;;;4919106;29;20012;-82
2023/04/11 03:35:00;;;;;;;87.32;50.83;;;;;;;;;;4937298;29;20047;-82
2023/04/11 03:37:26;;;;;;;93.25;50.75;;;;;;;;;;4920589;29;20034;-82
2023/04/11 03:39:51;;;;;;;70.72;43.72;;;;;;;;;;4936288;29;20052;-83
2023/04/11 03:42:17;;;;;;;53.70;37.97;;;;;;;;;;4937070;29;20027;-84
2023/04/11 03:44:42;;;;;;;62.55;43.30;;;;;;;;;;4935451;29;20056;-83
2023/04/11 03:47:07;;;;;;;62.80;42.53;;;;;;;;;;4919112;29;20028;-82
2023/04/11 03:49:32;;;;;;;67.38;45.10;;;;;;;;;;4935857;29;20051;-82
2023/04/11 03:51:58;;;;;;;57.25;40.97;;;;;;;;;;4936217;29;20032;-81
2023/04/11 03:54:23;;;;;;;61.55;40.90;;;;;;;;;;4909644;29;20454;-80
2023/04/11 03:56:48;;;;;;;60.78;40.72;;;;;;;;;;4913321;29;20071;-79
2023/04/11 03:59:14;;;;;;;72.88;45.60;;;;;;;;;;4904867;29;20072;-80
2023/04/11 04:01:39;;;;;;;56.92;38.95;;;;;;;;;;4898364;29;20030;-81
2023/04/11 04:04:06;;;;;;;63.47;41.97;;;;;;;;;;4901656;29;20403;-80
2023/04/11 04:06:31;;;;;;;63.72;41.08;;;;;;;;;;4918271;29;20112;-80
2023/04/11 04:08:58;;;;;;;66.25;42.78;;;;;;;;;;4918247;29;20059;-80
2023/04/11 04:11:23;;;;;;;74.38;45.38;;;;;;;;;;4917901;29;20430;-79
2023/04/11 04:13:49;;;;;;;55.17;37.78;;;;;;;;;;4934530;29;20020;-82
2023/04/11 04:16:16;;;;;;;61.72;40.60;;;;;;;;;;4925852;29;20012;-80
2023/04/11 04:18:41;;;;;;;56.55;38.83;;;;;;;;;;4904478;29;20028;-80
2023/04/11 04:21:07;;;;;;;70.68;45.35;;;;;;;;;;4925263;29;20084;-81
2023/04/11 04:23:32;;;;;;;64.38;42.78;;;;;;;;;;4909988;29;20064;-80
2023/04/11 04:26:00;;;;;;;50.35;35.75;;;;;;;;;;4907739;29;20027;-81
2023/04/11 04:28:26;;;;;;;49.75;36.63;;;;;;;;;;4909134;29;20024;-81
2023/04/11 04:30:53;;;;;;;45.10;34.38;;;;;;;;;;4922247;29;20117;-80
2023/04/11 04:33:19;;;;;;;48.75;34.13;;;;;;;;;;4923212;29;20035;-81
2023/04/11 04:35:44;;;;;;;59.92;39.53;;;;;;;;;;4906495;29;20062;-80
2023/04/11 04:38:16;;;;;;;52.58;37.15;;;;;;;;;;4924618;29;20028;-81
2023/04/11 04:40:41;;;;;;;51.88;36.15;;;;;;;;;;4923282;29;20463;-81
2023/04/11 04:43:10;;;;;;;48.33;35.33;;;;;;;;;;4925094;29;20028;-81
2023/04/11 04:45:35;;;;;;;49.80;36.63;;;;;;;;;;4925805;29;20039;-80
2023/04/11 04:48:00;;;;;;;45.42;35.28;;;;;;;;;;4926071;29;20024;-81
2023/04/11 04:50:26;;;;;;;45.17;32.33;;;;;;;;;;4925299;29;20024;-81
2023/04/11 04:52:51;;;;;;;49.55;34.92;;;;;;;;;;4930974;29;20012;-80
2023/04/11 04:55:16;;;;;;;43.90;31.93;;;;;;;;;;4932154;29;20095;-81
2023/04/11 04:57:41;;;;;;;46.50;34.95;;;;;;;;;;4932941;29;20256;-82
2023/04/11 05:00:10;;;;;;;44.53;33.35;;;;;;;;;;4932037;29;20084;-82
2023/04/11 05:02:36;;;;;;;46.00;35.03;;;;;;;;;;4930435;29;20028;-82
2023/04/11 05:05:03;;;;;;;48.05;33.70;;;;;;;;;;4931578;29;20033;-82
2023/04/11 05:07:28;;;;;;;43.40;31.92;;;;;;;;;;4913906;29;20034;-84
2023/04/11 05:09:53;;;;;;;51.08;36.70;;;;;;;;;;4915119;29;20056;-82
2023/04/11 05:12:25;;;;;;;47.53;34.22;;;;;;;;;;4913423;29;20399;-78
2023/04/11 05:14:51;;;;;;;47.38;33.72;;;;;;;;;;4930349;29;20039;-82
2023/04/11 05:17:17;;;;;;;53.25;36.78;;;;;;;;;;4929959;29;20075;-81
2023/04/11 05:19:42;;;;;;;49.22;36.45;;;;;;;;;;4928091;29;20126;-81
2023/04/11 05:22:07;;;;;;;44.70;31.45;;;;;;;;;;4930334;29;20060;-82
2023/04/11 05:24:32;;;;;;;44.63;31.70;;;;;;;;;;4910373;29;20021;-81
2023/04/11 05:26:59;;;;;;;42.03;32.83;;;;;;;;;;4909452;29;20031;-80
2023/04/11 05:29:24;;;;;;;43.97;32.00;;;;;;;;;;4924899;29;20035;-80
2023/04/11 05:31:50;;;;;;;43.42;33.05;;;;;;;;;;4924830;29;20046;-82
2023/04/11 05:34:15;;;;;;;38.33;29.23;;;;;;;;;;4911657;29;20031;-81
2023/04/11 05:36:40;;;;;;;41.72;31.75;;;;;;;;;;4929471;29;20027;-82
2023/04/11 05:39:06;;;;;;;44.05;32.13;;;;;;;;;;4929796;29;20434;-83
2023/04/11 05:41:31;;;;;;;46.40;34.90;;;;;;;;;;4929700;29;20020;-80
2023/04/11 05:43:56;;;;;;;47.08;33.67;;;;;;;;;;4926479;29;20028;-81
2023/04/11 05:46:22;;;;;;;45.53;33.80;;;;;;;;;;4924973;29;20024;-82
2023/04/11 05:48:47;;;;;;;42.55;32.20;;;;;;;;;;4919627;29;20294;-81
2023/04/11 05:51:12;;;;;;;40.88;32.38;;;;;;;;;;4898487;29;20013;-81
2023/04/11 05:53:38;;;;;;;47.63;36.85;;;;;;;;;;4923270;29;20058;-82
2023/04/11 05:56:03;;;;;;;46.45;33.63;;;;;;;;;;4924399;29;20039;-78
2023/04/11 05:58:30;;;;;;;45.75;34.65;;;;;;;;;;4921910;29;20024;-79
2023/04/11 06:00:56;;;;;;;43.47;33.22;;;;;;;;;;4920663;29;20024;-80
2023/04/11 06:03:22;;;;;;;44.55;31.80;;;;;;;;;;4919741;29;20127;-81
2023/04/11 06:05:47;;;;;;;41.20;32.67;;;;;;;;;;4922943;29;20055;-83
2023/04/11 06:08:12;;;;;;;46.92;33.50;;;;;;;;;;4926973;29;20016;-82
2023/04/11 06:10:38;;;;;;;42.70;31.88;;;;;;;;;;4923383;29;20491;-79
2023/04/11 06:13:03;;;;;;;39.40;30.88;;;;;;;;;;4920437;29;20112;-81
2023/04/11 06:15:28;;;;;;;41.65;31.70;;;;;;;;;;4923794;29;20032;-78
2023/04/11 06:17:54;;;;;;;42.30;33.05;;;;;;;;;;4924494;29;20027;-83
2023/04/11 06:20:20;;;;;;;36.83;29.40;;;;;;;;;;4919529;29;20035;-81
2023/04/11 06:22:49;;;;;;;38.92;31.35;;;;;;;;;;4916332;29;20028;-81
2023/04/11 06:25:15;;;;;;;;;;;;;;;;;;4927291;29;20035;-80
2023/04/11 06:27:40;;;;;;;36.10;29.23;;;;;;;;;;4924586;29;19915;-83
2023/04/11 06:30:06;;;;;;;35.75;28.65;;;;;;;;;;4929656;29;20059;-81
2023/04/11 06:32:31;;;;;;;41.80;31.42;;;;;;;;;;4928710;29;20466;-81
2023/04/11 06:34:56;;;;;;;35.80;28.98;;;;;;;;;;4923602;29;20036;-80
2023/04/11 06:37:22;;;;;;;38.42;30.25;;;;;;;;;;4922316;29;20566;-81
2023/04/11 06:39:47;;;;;;;33.75;29.35;;;;;;;;;;4927565;29;20024;-84
2023/04/11 06:42:13;;;;;;;30.42;27.10;;;;;;;;;;4916085;29;20041;-80
2023/04/11 06:44:38;;;;;;;34.20;27.58;;;;;;;;;;4922175;29;20087;-81
2023/04/11 06:47:03;;;;;;;31.02;26.60;;;;;;;;;;4915832;29;20032;-82
2023/04/11 06:49:29;;;;;;;33.33;26.88;;;;;;;;;;4904554;29;20037;-81
2023/04/11 06:51:54;;;;;;;28.58;22.90;;;;;;;;;;4919481;29;20080;-79
2023/04/11 06:54:20;;;;;;;30.27;24.55;;;;;;;;;;4916421;29;20046;-83
2023/04/11 06:56:46;;;;;;;28.77;24.75;;;;;;;;;;4931876;29;20032;-81
2023/04/11 06:59:11;;;;;;;27.40;23.13;;;;;;;;;;4924323;29;20036;-81
2023/04/11 07:01:38;;;;;;;29.98;24.77;;;;;;;;;;4923817;29;20101;-83
2023/04/11 07:04:06;;;;;;;26.95;22.58;;;;;;;;;;4926583;29;20039;-80
2023/04/11 07:06:34;;;;;;;28.05;23.15;;;;;;;;;;4932811;29;20018;-80
2023/04/11 07:09:00;;;;;;;25.45;21.02;;;;;;;;;;4928615;29;20024;-84
2023/04/11 07:11:25;;;;;;;26.23;23.35;;;;;;;;;;4932114;29;20059;-82
2023/04/11 07:13:50;;;;;;;25.27;21.73;;;;;;;;;;4911306;29;20028;-77
2023/04/11 07:16:15;;;;;;;25.00;22.15;;;;;;;;;;4921068;29;20379;-80
2023/04/11 07:18:41;;;;;;;29.52;20.23;;;;;;;;;;4927503;29;20020;-83
2023/04/11 07:21:10;;;;;;;24.30;21.75;;;;;;;;;;4926664;29;20059;-80
2023/04/11 07:23:35;;;;;;;23.20;20.67;;;;;;;;;;4923605;29;20016;-80
2023/04/11 07:26:00;;;;;;;23.20;20.80;;;;;;;;;;4903080;29;20055;-82
2023/04/11 07:28:27;;;;;;;22.73;19.02;;;;;;;;;;4904514;29;20044;-83
2023/04/11 07:30:52;;;;;;;23.33;19.13;;;;;;;;;;4924033;29;20055;-82
2023/04/11 07:33:18;;;;;;;20.50;18.40;;;;;;;;;;4924219;29;20064;-81
2023/04/11 07:35:43;;;;;;;19.58;17.67;;;;;;;;;;4910909;29;20301;-80
2023/04/11 07:38:09;;;;;;;21.85;18.67;;;;;;;;;;4910504;29;20024;-81
2023/04/11 07:40:34;;;;;;;19.73;17.73;;;;;;;;;;4912298;29;20116;-79
2023/04/11 07:43:00;;;;;;;19.15;17.20;;;;;;;;;;4921023;29;20563;-82
2023/04/11 07:45:25;;;;;;;20.20;18.02;;;;;;;;;;4925915;29;20407;-80
2023/04/11 07:47:51;;;;;;;18.27;16.38;;;;;;;;;;4913624;29;20020;-84
2023/04/11 07:50:16;;;;;;;18.00;15.23;;;;;;;;;;4922197;29;20016;-81
2023/04/11 07:52:41;;;;;;;19.85;17.83;;;;;;;;;;4922235;29;20039;-84
2023/04/11 07:55:07;;;;;;;17.88;16.08;;;;;;;;;;4925614;29;20039;-80
2023/04/11 07:57:32;;;;;;;18.15;16.35;;;;;;;;;;4915164;29;20510;-80
2023/04/11 07:59:58;;;;;;;18.48;16.10;;;;;;;;;;4898467;29;20088;-83
2023/04/11 08:02:23;;;;;;;21.25;16.10;;;;;;;;;;4913334;29;20541;-77
2023/04/11 08:04:48;;;;;;;19.30;15.80;;;;;;;;;;4916553;29;20041;-81
2023/04/11 08:07:14;;;;;;;17.88;15.93;;;;;;;;;;4918910;29;20024;-83
2023/04/11 08:09:41;;;;;;;20.55;17.08;;;;;;;;;;4915123;29;20045;-82
2023/04/11 08:12:06;;;;;;;17.80;15.95;;;;;;;;;;4920458;29;20060;-83
2023/04/11 08:14:32;;;;;;;16.85;14.98;;;;;;;;;;4930508;29;20090;-79
2023/04/11 08:16:57;;;;;;;18.92;15.50;;;;;;;;;;4929330;29;20024;-81
2023/04/11 08:19:23;;;;;;;18.30;16.27;;;;;;;;;;4932632;29;20067;-84
2023/04/11 08:21:48;;;;;;;17.58;15.70;;;;;;;;;;4936150;29;20079;-84
2023/04/11 08:24:13;;;;;;;17.77;15.70;;;;;;;;;;4932009;29;20036;-81
2023/04/11 08:26:38;;;;;;;15.63;14.13;;;;;;;;;;4922175;29;20040;-80
2023/04/11 08:29:04;;;;;;;15.13;13.75;;;;;;;;;;4922321;29;20810;-80
2023/04/11 08:31:31;;;;;;;15.40;13.88;;;;;;;;;;4919062;29;20052;-80
2023/04/11 08:33:56;;;;;;;15.18;13.77;;;;;;;;;;4910058;29;20028;-78
2023/04/11 08:36:21;;;;;;;15.65;14.15;;;;;;;;;;4913496;29;20039;-79
2023/04/11 08:38:47;;;;;;;16.17;14.48;;;;;;;;;;4906415;29;20124;-80
2023/04/11 08:41:13;;;;;;;16.75;14.50;;;;;;;;;;4892816;29;20105;-80
2023/04/11 08:43:39;;;;;;;15.90;14.02;;;;;;;;;;4921344;29;20056;-80
2023/04/11 08:46:06;;;;;;;15.57;13.48;;;;;;;;;;4919343;29;20079;-79
2023/04/11 08:48:32;;;;;;;15.73;13.65;;;;;;;;;;4916268;29;20028;-77
2023/04/11 08:50:57;;;;;;;16.40;14.80;;;;;;;;;;4910562;29;20205;-82
2023/04/11 08:53:23;;;;;;;15.93;14.43;;;;;;;;;;4921858;29;20020;-82
2023/04/11 08:55:49;;;;;;;14.50;12.95;;;;;;;;;;4919777;29;20036;-81
2023/04/11 08:58:15;;;;;;;13.98;12.55;;;;;;;;;;4924242;29;20035;-82
2023/04/11 09:00:41;;;;;;;14.27;12.90;;;;;;;;;;4924212;29;20019;-81
2023/04/11 09:03:10;;;;;;;14.63;13.32;;;;;;;;;;4922805;29;20028;-81
2023/04/11 09:05:37;;;;;;;;;;;;;;;;;;4906340;29;20034;-81
2023/04/11 09:08:03;;;;;;;13.60;12.27;;;;;;;;;;4923291;29;19970;-83
2023/04/11 09:10:29;;;;;;;13.57;12.32;;;;;;;;;;4912167;29;20013;-82
2023/04/11 09:12:54;;;;;;;13.23;11.88;;;;;;;;;;4891620;29;20059;-81
2023/04/11 09:15:21;;;;;;;13.80;12.50;;;;;;;;;;4897651;29;20029;-80
2023/04/11 09:17:46;;;;;;;13.27;12.00;;;;;;;;;;4878474;29;20663;-80
2023/04/11 09:20:15;;;;;;;15.27;13.23;;;;;;;;;;4893095;29;20043;-81
2023/04/11 09:22:41;;;;;;;13.73;12.32;;;;;;;;;;4871627;29;20029;-80
2023/04/11 09:25:06;;;;;;;12.10;11.10;;;;;;;;;;4897889;29;20080;-82
2023/04/11 09:27:31;;;;;;;12.90;11.70;;;;;;;;;;4889825;29;20032;-82
2023/04/11 09:29:57;;;;;;;13.45;12.05;;;;;;;;;;4896804;29;20056;-80
2023/04/11 09:32:27;;;;;;;12.93;11.73;;;;;;;;;;4899734;29;20594;-80
2023/04/11 09:35:06;;;;;;;11.98;10.82;;;;;;;;;;4879225;29;20043;-78
2023/04/11 09:37:42;;;;;;;11.30;10.38;;;;;;;;;;4899105;29;20012;-80
2023/04/11 09:40:07;;;;;;;12.73;10.88;;;;;;;;;;4903924;29;20040;-79
2023/04/11 09:42:33;;;;;;;11.85;10.88;;;;;;;;;;4907746;29;20398;-79
2023/04/11 09:44:59;;;;;;;11.40;10.40;;;;;;;;;;4904482;29;20076;-81
2023/04/11 09:47:24;;;;;;;10.85;9.93;;;;;;;;;;4903613;29;20862;-81
2023/04/11 09:49:51;;;;;;;11.05;10.05;;;;;;;;;;4890963;29;20047;-81
2023/04/11 09:52:17;;;;;;;10.55;9.65;;;;;;;;;;4898319;29;20036;-80
2023/04/11 09:54:43;;;;;;;11.35;10.35;;;;;;;;;;4894449;29;20053;-79
2023/04/11 09:57:09;;;;;;;11.10;10.00;;;;;;;;;;4901831;29;20159;-79
2023/04/11 09:59:34;;;;;;;10.40;9.50;;;;;;;;;;4883006;29;20043;-80
2023/04/11 10:02:00;;;;;;;10.55;9.75;;;;;;;;;;4893023;29;20031;-79
2023/04/11 10:04:26;;;;;;;11.13;10.05;;;;;;;;;;4899253;29;20115;-79
2023/04/11 10:06:52;;;;;;;11.95;10.82;;;;;;;;;;4893017;29;20036;-78
2023/04/11 10:09:17;;;;;;;11.30;10.37;;;;;;;;;;4895769;29;20487;-81
2023/04/11 10:11:43;;;;;;;10.57;9.68;;;;;;;;;;4911730;29;20802;-79
2023/04/11 10:14:09;;;;;;;10.10;9.15;;;;;;;;;;4914222;29;20087;-79
2023/04/11 10:16:34;;;;;;;10.25;9.45;;;;;;;;;;4938799;29;20068;-79
2023/04/11 10:19:00;;;;;;;10.95;10.00;;;;;;;;;;4925192;29;20032;-79
2023/04/11 10:21:29;;;;;;;11.45;10.55;;;;;;;;;;4918283;29;20505;-80
2023/04/11 10:24:13;;;;;;;10.53;9.63;;;;;;;;;;4935123;29;20032;-81
2023/04/11 10:26:58;;;;;;;12.32;11.23;;;;;;;;;;4928927;29;20320;-78
2023/04/11 10:29:32;;;;;;;11.20;10.05;;;;;;;;;;4923973;29;20024;-78
2023/04/11 10:32:07;;;;;;;11.73;10.77;;;;;;;;;;4913054;29;20039;-82
2023/04/11 10:34:37;;;;;;;11.43;10.43;;;;;;;;;;4938858;23;20056;-81
2023/04/11 10:37:03;;;;;;;10.98;10.00;;;;;;;;;;4945962;29;21968;-79
2023/04/11 10:39:47;;;;;;;10.10;9.23;;;;;;;;;;4951918;29;20096;-80
2023/04/11 10:42:24;;;;;;;11.25;9.40;;;;;;;;;;4937692;29;20031;-78
2023/04/11 10:45:10;;;;;;;10.80;10.00;;;;;;;;;;4933385;29;20042;-80
2023/04/11 10:47:35;;;;;;;10.25;9.45;;;;;;;;;;4941441;28;20034;-80
2023/04/11 10:50:01;;;;;;;9.85;9.05;;;;;;;;;;4927385;29;20414;-77
2023/04/11 10:52:27;;;;;;;11.25;10.25;;;;;;;;;;4934522;29;20086;-79
2023/04/11 10:54:53;;;;;;;10.93;10.02;;;;;;;;;;4937141;29;20040;-79
2023/04/11 10:57:18;;;;;;;10.85;9.95;;;;;;;;;;4938570;29;20537;-78
2023/04/11 10:59:50;;;;;;;11.07;10.05;;;;;;;;;;4935786;29;20107;-79
2023/04/11 11:02:15;;;;;;;11.23;10.23;;;;;;;;;;4928061;29;20043;-79
2023/04/11 11:04:41;;;;;;;10.38;9.52;;;;;;;;;;4931880;29;20000;-78
2023/04/11 11:07:11;;;;;;;10.00;9.20;;;;;;;;;;4931303;29;20032;-79
2023/04/11 11:09:36;;;;;;;10.27;9.48;;;;;;;;;;4958782;29;20095;-80
2023/04/11 11:12:08;;;;;;;9.95;9.25;;;;;;;;;;4930225;29;20070;-78
2023/04/11 11:14:34;;;;;;;11.05;10.00;;;;;;;;;;4937758;29;20130;-80
2023/04/11 11:16:59;;;;;;;9.38;8.68;;;;;;;;;;4935754;29;20059;-79
2023/04/11 11:19:25;;;;;;;9.55;8.80;;;;;;;;;;4933355;29;20032;-76
2023/04/11 11:21:51;;;;;;;9.20;8.50;;;;;;;;;;4937144;29;20030;-80
2023/04/11 11:24:22;;;;;;;8.85;8.15;;;;;;;;;;4935358;29;20031;-78
2023/04/11 11:26:49;;;;;;;9.98;9.27;;;;;;;;;;4931975;29;20031;-78
2023/04/11 11:29:14;;;;;;;10.27;9.40;;;;;;;;;;4937979;29;20055;-79
2023/04/11 11:31:41;;;;;;;9.50;8.70;;;;;;;;;;4933074;29;20084;-77
2023/04/11 11:34:07;;;;;;;8.55;7.85;;;;;;;;;;4931619;29;20043;-75
2023/04/11 11:36:38;;;;;;;8.60;7.90;;;;;;;;;;4948148;29;20039;-77
2023/04/11 11:39:04;;;;;;;8.98;8.20;;;;;;;;;;4940690;29;20032;-76
2023/04/11 11:41:30;;;;;;;8.95;8.10;;;;;;;;;;4929332;29;20542;-78
2023/04/11 11:43:55;;;;;;;8.38;7.68;;;;;;;;;;4931706;29;20027;-78
2023/04/11 11:46:21;;;;;;;8.63;7.93;;;;;;;;;;4936409;29;20028;-79
2023/04/11 11:49:06;;;;;;;8.32;7.60;;;;;;;;;;4918101;29;20034;-76
2023/04/11 11:51:41;;;;;;;9.75;8.88;;;;;;;;;;4937052;29;20113;-79
2023/04/11 11:54:08;;;;;;;8.23;7.63;;;;;;;;;;4937491;29;20031;-79
2023/04/11 11:56:33;;;;;;;8.60;7.90;;;;;;;;;;4934391;29;20038;-79
2023/04/11 11:58:59;;;;;;;8.82;8.07;;;;;;;;;;4930733;29;20028;-77
2023/04/11 12:01:24;;;;;;;8.25;7.65;;;;;;;;;;4934199;29;20529;-78
2023/04/11 12:03:52;;;;;;;9.93;9.13;;;;;;;;;;4932594;29;20024;-78
2023/04/11 12:06:17;;;;;;;9.23;8.43;;;;;;;;;;4936855;29;20022;-77
2023/04/11 12:08:48;;;;;;;8.88;8.18;;;;;;;;;;4937867;29;20859;-79
2023/04/11 12:11:14;;;;;;;8.68;8.00;;;;;;;;;;4922433;29;20020;-76
2023/04/11 12:13:40;;;;;;;9.05;8.35;;;;;;;;;;4917211;29;20027;-77
2023/04/11 12:16:05;;;;;;;8.20;7.43;;;;;;;;;;4914420;29;20063;-77
2023/04/11 12:18:30;;;;;;;8.32;7.72;;;;;;;;;;4932929;29;20074;-77
2023/04/11 12:20:57;;;;;;;8.27;7.57;;;;;;;;;;4931133;29;20512;-78
2023/04/11 12:23:22;;;;;;;7.70;7.00;;;;;;;;;;4931782;29;20406;-76
2023/04/11 12:25:48;;;;;;;8.60;7.90;;;;;;;;;;4932736;29;20027;-77
2023/04/11 12:28:13;;;;;;;9.70;8.50;;;;;;;;;;4932014;29;20023;-77
2023/04/11 12:30:38;;;;;;;8.20;7.60;;;;;;;;;;4913599;29;20032;-77
2023/04/11 12:33:04;;;;;;;9.20;8.50;;;;;;;;;;4935389;29;20023;-79
2023/04/11 12:35:31;;;;;;;9.65;8.80;;;;;;;;;;4933174;29;20047;-76
2023/04/11 12:37:56;;;;;;;8.60;7.90;;;;;;;;;;4939727;29;20490;-79
2023/04/11 12:40:21;;;;;;;8.68;8.00;;;;;;;;;;4939882;29;20028;-76
2023/04/11 12:42:47;;;;;;;9.35;8.55;;;;;;;;;;4934645;29;20027;-77
2023/04/11 12:45:13;;;;;;;9.95;8.85;;;;;;;;;;4928071;29;20046;-80
2023/04/11 12:47:38;;;;;;;9.40;8.65;;;;;;;;;;4939025;29;20035;-78
2023/04/11 12:50:05;;;;;;;10.32;9.52;;;;;;;;;;4937878;29;20027;-77
2023/04/11 12:52:30;;;;;;;8.95;8.25;;;;;;;;;;4916499;29;20121;-78
2023/04/11 12:54:56;;;;;;;9.18;8.38;;;;;;;;;;4934201;29;20576;-77
2023/04/11 12:57:21;;;;;;;10.25;9.35;;;;;;;;;;4935257;29;20702;-77
2023/04/11 12:59:46;;;;;;;9.98;8.60;;;;;;;;;;4912399;29;20039;-76
2023/04/11 13:02:12;;;;;;;10.70;9.23;;;;;;;;;;4937735;28;20023;-79
2023/04/11 13:04:37;;;;;;;9.05;8.35;;;;;;;;;;4938828;29;20082;-76
2023/04/11 13:07:02;;;;;;;9.65;8.65;;;;;;;;;;4913591;29;20015;-76
2023/04/11 13:09:28;;;;;;;8.75;8.15;;;;;;;;;;4937797;29;20831;-80
2023/04/11 13:11:57;;;;;;;9.15;8.35;;;;;;;;;;4946335;29;20030;-80
2023/04/11 13:14:22;;;;;;;7.88;7.28;;;;;;;;;;4943872;29;20040;-80
2023/04/11 13:16:47;;;;;;;7.90;7.22;;;;;;;;;;4938882;29;20027;-77
2023/04/11 13:19:13;;;;;;;7.85;7.05;;;;;;;;;;4943093;29;20019;-79
2023/04/11 13:21:38;;;;;;;7.28;6.68;;;;;;;;;;4943698;29;20472;-79
2023/04/11 13:24:04;;;;;;;8.05;7.35;;;;;;;;;;4936249;29;20642;-77
2023/04/11 13:26:29;;;;;;;7.60;7.00;;;;;;;;;;4940671;29;20481;-78
2023/04/11 13:28:54;;;;;;;8.00;7.40;;;;;;;;;;4945270;29;20586;-79
2023/04/11 13:31:25;;;;;;;8.65;7.65;;;;;;;;;;4942026;29;20136;-78
2023/04/11 13:33:50;;;;;;;8.13;7.47;;;;;;;;;;4917558;29;20051;-78
2023/04/11 13:36:16;;;;;;;7.75;7.15;;;;;;;;;;4938517;29;20517;-77
2023/04/11 13:38:41;;;;;;;8.00;7.40;;;;;;;;;;4918514;29;20041;-79
2023/04/11 13:41:06;;;;;;;8.60;7.90;;;;;;;;;;4930631;29;20508;-79
2023/04/11 13:43:32;;;;;;;6.55;6.05;;;;;;;;;;4944606;29;20339;-78
2023/04/11 13:45:57;;;;;;;6.22;5.72;;;;;;;;;;4944122;29;20047;-78
2023/04/11 13:48:22;;;;;;;7.53;6.93;;;;;;;;;;4940185;29;20031;-77
2023/04/11 13:50:47;;;;;;;7.90;7.20;;;;;;;;;;4932663;29;20027;-77
2023/04/11 13:53:13;;;;;;;8.18;7.47;;;;;;;;;;4930843;29;20278;-80
2023/04/11 13:55:38;;;;;;;7.30;6.75;;;;;;;;;;4934785;29;20114;-79
2023/04/11 13:58:03;;;;;;;7.45;6.85;;;;;;;;;;4931234;29;20028;-78
2023/04/11 14:00:29;;;;;;;7.53;6.93;;;;;;;;;;4931665;29;20020;-78
2023/04/11 14:02:54;;;;;;;7.70;7.15;;;;;;;;;;4938935;29;20027;-78
2023/04/11 14:05:19;;;;;;;8.00;7.30;;;;;;;;;;4946500;29;20027;-79
2023/04/11 14:07:44;;;;;;;8.07;7.38;;;;;;;;;;4946377;29;20271;-80
2023/04/11 14:10:10;;;;;;;7.88;7.18;;;;;;;;;;4944335;29;20200;-79
2023/04/11 14:12:36;;;;;;;8.10;7.40;;;;;;;;;;4939721;29;20066;-78
2023/04/11 14:15:01;;;;;;;8.10;7.50;;;;;;;;;;4925386;29;20409;-78
2023/04/11 14:17:26;;;;;;;7.63;7.13;;;;;;;;;;4950248;29;20016;-78